sensor_id;sensor_type;location;lat;lon;timestamp;temperature;humidity
40077;DHT22;25777;47.824;18.982;2022-07-23T00:00:11;21.00;99.90
40077;DHT22;25777;47.824;18.982;2022-07-23T00:02:37;20.90;99.90
40077;DHT22;25777;47.824;18.982;2022-07-23T00:05:03;20.70;99.90
40077;DHT22;25777;47.824;18.982;2022-07-23T00:07:28;20.60;99.90
40077;DHT22;25777;47.824;18.982;2022-07-23T00:09:54;20.60;99.90
40077;DHT22;25777;47.824;18.982;2022-07-23T00:12:20;20.50;99.90
40077;DHT22;25777;47.824;18.982;2022-07-23T00:14:46;20.50;99.90
40077;DHT22;25777;47.824;18.982;2022-07-23T00:17:12;20.60;99.90
40077;DHT22;25777;47.824;18.982;2022-07-23T00:19:37;20.50;99.90
40077;DHT22;25777;47.824;18.982;2022-07-23T00:22:03;20.40;99.90
40077;DHT22;25777;47.824;18.982;2022-07-23T00:24:29;20.50;99.90
40077;DHT22;25777;47.824;18.982;2022-07-23T00:26:55;20.50;99.90
40077;DHT22;25777;47.824;18.982;2022-07-23T00:29:20;20.40;99.90
40077;DHT22;25777;47.824;18.982;2022-07-23T00:31:46;20.40;99.90
40077;DHT22;25777;47.824;18.982;2022-07-23T00:34:12;20.40;99.90
40077;DHT22;25777;47.824;18.982;2022-07-23T00:36:37;20.30;99.90
40077;DHT22;25777;47.824;18.982;2022-07-23T00:39:04;20.20;99.90
40077;DHT22;25777;47.824;18.982;2022-07-23T00:41:30;20.20;99.90
40077;DHT22;25777;47.824;18.982;2022-07-23T00:43:55;20.10;99.90
40077;DHT22;25777;47.824;18.982;2022-07-23T00:46:22;20.10;99.90
40077;DHT22;25777;47.824;18.982;2022-07-23T00:48:48;20.10;99.90
40077;DHT22;25777;47.824;18.982;2022-07-23T00:51:17;20.10;99.90
40077;DHT22;25777;47.824;18.982;2022-07-23T00:53:43;20.00;99.90
40077;DHT22;25777;47.824;18.982;2022-07-23T00:56:09;20.10;99.90
40077;DHT22;25777;47.824;18.982;2022-07-23T00:58:35;20.10;99.90
40077;DHT22;25777;47.824;18.982;2022-07-23T01:01:01;20.10;99.90
40077;DHT22;25777;47.824;18.982;2022-07-23T01:03:27;20.00;99.90
40077;DHT22;25777;47.824;18.982;2022-07-23T01:05:52;20.00;99.90
40077;DHT22;25777;47.824;18.982;2022-07-23T01:08:18;20.00;99.90
40077;DHT22;25777;47.824;18.982;2022-07-23T01:10:45;20.10;99.90
40077;DHT22;25777;47.824;18.982;2022-07-23T01:13:11;20.00;99.90
40077;DHT22;25777;47.824;18.982;2022-07-23T01:15:38;20.00;99.90
40077;DHT22;25777;47.824;18.982;2022-07-23T01:18:04;20.00;99.90
40077;DHT22;25777;47.824;18.982;2022-07-23T01:20:30;19.90;99.90
40077;DHT22;25777;47.824;18.982;2022-07-23T01:22:56;19.90;99.90
40077;DHT22;25777;47.824;18.982;2022-07-23T01:25:22;19.70;99.90
40077;DHT22;25777;47.824;18.982;2022-07-23T01:27:48;19.60;99.90
40077;DHT22;25777;47.824;18.982;2022-07-23T01:30:14;19.70;99.90
40077;DHT22;25777;47.824;18.982;2022-07-23T01:32:40;19.70;99.90
40077;DHT22;25777;47.824;18.982;2022-07-23T01:35:06;19.50;99.90
40077;DHT22;25777;47.824;18.982;2022-07-23T01:37:32;19.50;99.90
40077;DHT22;25777;47.824;18.982;2022-07-23T01:39:57;19.50;99.90
40077;DHT22;25777;47.824;18.982;2022-07-23T01:42:24;19.40;99.90
40077;DHT22;25777;47.824;18.982;2022-07-23T01:44:50;19.40;99.90
40077;DHT22;25777;47.824;18.982;2022-07-23T01:47:16;19.40;99.90
40077;DHT22;25777;47.824;18.982;2022-07-23T01:49:41;19.30;99.90
40077;DHT22;25777;47.824;18.982;2022-07-23T01:52:07;19.30;99.90
40077;DHT22;25777;47.824;18.982;2022-07-23T01:54:36;19.40;99.90
40077;DHT22;25777;47.824;18.982;2022-07-23T01:57:03;19.40;99.90
40077;DHT22;25777;47.824;18.982;2022-07-23T01:59:29;19.40;99.90
40077;DHT22;25777;47.824;18.982;2022-07-23T02:01:55;19.30;99.90
40077;DHT22;25777;47.824;18.982;2022-07-23T02:04:22;19.30;99.90
40077;DHT22;25777;47.824;18.982;2022-07-23T02:06:48;19.30;99.90
40077;DHT22;25777;47.824;18.982;2022-07-23T02:09:14;19.20;99.90
40077;DHT22;25777;47.824;18.982;2022-07-23T02:11:40;19.20;99.90
40077;DHT22;25777;47.824;18.982;2022-07-23T02:14:06;19.20;99.90
40077;DHT22;25777;47.824;18.982;2022-07-23T02:16:32;19.10;99.90
40077;DHT22;25777;47.824;18.982;2022-07-23T02:18:57;19.10;99.90
40077;DHT22;25777;47.824;18.982;2022-07-23T02:21:23;19.10;99.90
40077;DHT22;25777;47.824;18.982;2022-07-23T02:23:49;18.90;99.90
40077;DHT22;25777;47.824;18.982;2022-07-23T02:26:14;18.90;99.90
40077;DHT22;25777;47.824;18.982;2022-07-23T02:28:40;18.90;99.90
40077;DHT22;25777;47.824;18.982;2022-07-23T02:31:06;19.00;99.90
40077;DHT22;25777;47.824;18.982;2022-07-23T02:33:32;19.10;99.90
40077;DHT22;25777;47.824;18.982;2022-07-23T02:35:58;19.10;99.90
40077;DHT22;25777;47.824;18.982;2022-07-23T02:38:24;19.00;99.90
40077;DHT22;25777;47.824;18.982;2022-07-23T02:40:49;18.90;99.90
40077;DHT22;25777;47.824;18.982;2022-07-23T02:43:15;18.90;99.90
40077;DHT22;25777;47.824;18.982;2022-07-23T02:45:41;19.00;99.90
40077;DHT22;25777;47.824;18.982;2022-07-23T02:48:06;19.00;99.90
40077;DHT22;25777;47.824;18.982;2022-07-23T02:50:32;18.90;99.90
40077;DHT22;25777;47.824;18.982;2022-07-23T02:52:58;18.90;99.90
40077;DHT22;25777;47.824;18.982;2022-07-23T02:55:24;18.90;99.90
40077;DHT22;25777;47.824;18.982;2022-07-23T02:57:49;18.90;99.90
40077;DHT22;25777;47.824;18.982;2022-07-23T03:00:15;18.80;99.90
40077;DHT22;25777;47.824;18.982;2022-07-23T03:02:41;18.60;99.90
40077;DHT22;25777;47.824;18.982;2022-07-23T03:05:07;18.60;99.90
40077;DHT22;25777;47.824;18.982;2022-07-23T03:07:33;18.50;99.90
40077;DHT22;25777;47.824;18.982;2022-07-23T03:09:58;18.50;99.90
40077;DHT22;25777;47.824;18.982;2022-07-23T03:12:24;18.50;99.90
40077;DHT22;25777;47.824;18.982;2022-07-23T03:14:50;18.50;99.90
40077;DHT22;25777;47.824;18.982;2022-07-23T03:17:16;18.50;99.90
40077;DHT22;25777;47.824;18.982;2022-07-23T03:19:42;18.50;99.90
40077;DHT22;25777;47.824;18.982;2022-07-23T03:22:08;18.40;99.90
40077;DHT22;25777;47.824;18.982;2022-07-23T03:24:34;18.50;99.90
40077;DHT22;25777;47.824;18.982;2022-07-23T03:27:18;18.50;99.90
40077;DHT22;25777;47.824;18.982;2022-07-23T03:29:44;18.50;99.90
40077;DHT22;25777;47.824;18.982;2022-07-23T03:32:09;18.50;99.90
40077;DHT22;25777;47.824;18.982;2022-07-23T03:34:35;18.50;99.90
40077;DHT22;25777;47.824;18.982;2022-07-23T03:37:01;18.50;99.90
40077;DHT22;25777;47.824;18.982;2022-07-23T03:39:27;18.50;99.90
40077;DHT22;25777;47.824;18.982;2022-07-23T03:41:53;18.50;99.90
40077;DHT22;25777;47.824;18.982;2022-07-23T03:44:18;18.50;99.90
40077;DHT22;25777;47.824;18.982;2022-07-23T03:46:44;18.50;99.90
40077;DHT22;25777;47.824;18.982;2022-07-23T03:49:10;18.50;99.90
40077;DHT22;25777;47.824;18.982;2022-07-23T03:51:35;18.60;99.90
40077;DHT22;25777;47.824;18.982;2022-07-23T03:54:01;18.70;99.90
40077;DHT22;25777;47.824;18.982;2022-07-23T03:56:27;18.70;99.90
40077;DHT22;25777;47.824;18.982;2022-07-23T03:58:53;18.70;99.90
40077;DHT22;25777;47.824;18.982;2022-07-23T04:01:19;18.80;99.90
40077;DHT22;25777;47.824;18.982;2022-07-23T04:03:45;18.70;99.90
40077;DHT22;25777;47.824;18.982;2022-07-23T04:06:11;18.70;99.90
40077;DHT22;25777;47.824;18.982;2022-07-23T04:08:37;18.80;99.90
40077;DHT22;25777;47.824;18.982;2022-07-23T04:11:03;18.90;99.90
40077;DHT22;25777;47.824;18.982;2022-07-23T04:13:29;19.00;99.90
40077;DHT22;25777;47.824;18.982;2022-07-23T04:15:55;19.10;99.90
40077;DHT22;25777;47.824;18.982;2022-07-23T04:18:21;19.30;99.90
40077;DHT22;25777;47.824;18.982;2022-07-23T04:20:50;19.30;99.90
40077;DHT22;25777;47.824;18.982;2022-07-23T04:23:16;19.40;99.90
40077;DHT22;25777;47.824;18.982;2022-07-23T04:25:42;19.50;99.90
40077;DHT22;25777;47.824;18.982;2022-07-23T04:28:08;19.50;99.90
40077;DHT22;25777;47.824;18.982;2022-07-23T04:30:33;19.60;99.90
40077;DHT22;25777;47.824;18.982;2022-07-23T04:32:59;19.70;99.90
40077;DHT22;25777;47.824;18.982;2022-07-23T04:35:25;19.80;99.90
40077;DHT22;25777;47.824;18.982;2022-07-23T04:37:51;19.80;99.90
40077;DHT22;25777;47.824;18.982;2022-07-23T04:40:17;19.80;99.90
40077;DHT22;25777;47.824;18.982;2022-07-23T04:42:42;19.90;99.90
40077;DHT22;25777;47.824;18.982;2022-07-23T04:45:08;20.00;99.90
40077;DHT22;25777;47.824;18.982;2022-07-23T04:47:34;20.00;99.90
40077;DHT22;25777;47.824;18.982;2022-07-23T04:50:00;20.10;99.90
40077;DHT22;25777;47.824;18.982;2022-07-23T04:52:27;20.10;99.90
40077;DHT22;25777;47.824;18.982;2022-07-23T04:54:53;20.10;99.90
40077;DHT22;25777;47.824;18.982;2022-07-23T04:57:18;20.20;99.90
40077;DHT22;25777;47.824;18.982;2022-07-23T04:59:44;20.30;99.90
40077;DHT22;25777;47.824;18.982;2022-07-23T05:02:10;20.40;99.90
40077;DHT22;25777;47.824;18.982;2022-07-23T05:04:36;20.50;99.90
40077;DHT22;25777;47.824;18.982;2022-07-23T05:07:02;20.60;99.90
40077;DHT22;25777;47.824;18.982;2022-07-23T05:09:27;20.70;99.90
40077;DHT22;25777;47.824;18.982;2022-07-23T05:11:53;20.80;99.90
40077;DHT22;25777;47.824;18.982;2022-07-23T05:14:19;20.80;99.90
40077;DHT22;25777;47.824;18.982;2022-07-23T05:16:44;20.90;99.90
40077;DHT22;25777;47.824;18.982;2022-07-23T05:19:10;21.00;99.90
40077;DHT22;25777;47.824;18.982;2022-07-23T05:21:36;21.10;99.90
40077;DHT22;25777;47.824;18.982;2022-07-23T05:24:02;21.20;99.90
40077;DHT22;25777;47.824;18.982;2022-07-23T05:26:28;21.40;99.90
40077;DHT22;25777;47.824;18.982;2022-07-23T05:28:53;21.60;99.90
40077;DHT22;25777;47.824;18.982;2022-07-23T05:31:19;21.90;99.90
40077;DHT22;25777;47.824;18.982;2022-07-23T05:33:45;22.20;99.90
40077;DHT22;25777;47.824;18.982;2022-07-23T05:36:11;22.50;99.90
40077;DHT22;25777;47.824;18.982;2022-07-23T05:38:37;22.70;99.90
40077;DHT22;25777;47.824;18.982;2022-07-23T05:41:03;22.90;99.90
40077;DHT22;25777;47.824;18.982;2022-07-23T05:43:29;23.20;99.90
40077;DHT22;25777;47.824;18.982;2022-07-23T05:45:54;23.40;99.90
40077;DHT22;25777;47.824;18.982;2022-07-23T05:48:20;23.50;99.90
40077;DHT22;25777;47.824;18.982;2022-07-23T05:50:46;23.60;99.90
40077;DHT22;25777;47.824;18.982;2022-07-23T05:53:12;23.80;99.90
40077;DHT22;25777;47.824;18.982;2022-07-23T05:55:38;23.90;99.90
40077;DHT22;25777;47.824;18.982;2022-07-23T05:58:05;24.10;99.90
40077;DHT22;25777;47.824;18.982;2022-07-23T06:00:31;24.30;99.90
40077;DHT22;25777;47.824;18.982;2022-07-23T06:02:57;24.40;99.90
40077;DHT22;25777;47.824;18.982;2022-07-23T06:05:24;24.60;99.90
40077;DHT22;25777;47.824;18.982;2022-07-23T06:07:50;24.80;99.90
40077;DHT22;25777;47.824;18.982;2022-07-23T06:10:16;24.90;99.90
40077;DHT22;25777;47.824;18.982;2022-07-23T06:12:42;25.10;99.90
40077;DHT22;25777;47.824;18.982;2022-07-23T06:15:08;25.30;99.90
40077;DHT22;25777;47.824;18.982;2022-07-23T06:17:34;25.40;99.90
40077;DHT22;25777;47.824;18.982;2022-07-23T06:20:00;25.50;99.90
40077;DHT22;25777;47.824;18.982;2022-07-23T06:22:26;25.80;99.90
40077;DHT22;25777;47.824;18.982;2022-07-23T06:24:52;26.10;99.90
40077;DHT22;25777;47.824;18.982;2022-07-23T06:27:18;26.20;99.60
40077;DHT22;25777;47.824;18.982;2022-07-23T06:29:43;26.20;99.70
40077;DHT22;25777;47.824;18.982;2022-07-23T06:32:10;26.30;98.70
40077;DHT22;25777;47.824;18.982;2022-07-23T06:34:35;26.40;99.10
40077;DHT22;25777;47.824;18.982;2022-07-23T06:37:01;26.60;98.40
40077;DHT22;25777;47.824;18.982;2022-07-23T06:39:27;26.80;99.60
40077;DHT22;25777;47.824;18.982;2022-07-23T06:41:53;27.10;95.30
40077;DHT22;25777;47.824;18.982;2022-07-23T06:44:19;27.40;94.00
40077;DHT22;25777;47.824;18.982;2022-07-23T06:46:44;27.50;92.80
40077;DHT22;25777;47.824;18.982;2022-07-23T06:49:10;27.70;91.20
40077;DHT22;25777;47.824;18.982;2022-07-23T06:51:36;27.80;91.20
40077;DHT22;25777;47.824;18.982;2022-07-23T06:54:02;28.10;88.00
40077;DHT22;25777;47.824;18.982;2022-07-23T06:56:28;28.30;86.70
40077;DHT22;25777;47.824;18.982;2022-07-23T06:58:54;28.30;85.60
40077;DHT22;25777;47.824;18.982;2022-07-23T07:01:19;28.40;80.80
40077;DHT22;25777;47.824;18.982;2022-07-23T07:03:45;28.40;81.80
40077;DHT22;25777;47.824;18.982;2022-07-23T07:06:11;28.50;80.30
40077;DHT22;25777;47.824;18.982;2022-07-23T07:08:37;28.70;79.10
40077;DHT22;25777;47.824;18.982;2022-07-23T07:11:03;28.80;78.70
40077;DHT22;25777;47.824;18.982;2022-07-23T07:13:29;28.80;78.40
40077;DHT22;25777;47.824;18.982;2022-07-23T07:15:55;29.00;77.80
40077;DHT22;25777;47.824;18.982;2022-07-23T07:18:21;28.90;77.90
40077;DHT22;25777;47.824;18.982;2022-07-23T07:20:46;29.20;80.10
40077;DHT22;25777;47.824;18.982;2022-07-23T07:23:12;29.30;77.60
40077;DHT22;25777;47.824;18.982;2022-07-23T07:25:38;29.40;75.20
40077;DHT22;25777;47.824;18.982;2022-07-23T07:28:04;29.60;75.30
40077;DHT22;25777;47.824;18.982;2022-07-23T07:30:30;29.60;75.30
40077;DHT22;25777;47.824;18.982;2022-07-23T07:32:56;29.70;75.40
40077;DHT22;25777;47.824;18.982;2022-07-23T07:35:21;29.90;72.60
40077;DHT22;25777;47.824;18.982;2022-07-23T07:37:47;30.00;73.30
40077;DHT22;25777;47.824;18.982;2022-07-23T07:40:13;30.10;74.10
40077;DHT22;25777;47.824;18.982;2022-07-23T07:42:46;30.40;73.30
40077;DHT22;25777;47.824;18.982;2022-07-23T07:45:12;30.60;71.50
40077;DHT22;25777;47.824;18.982;2022-07-23T07:47:37;30.70;72.00
40077;DHT22;25777;47.824;18.982;2022-07-23T07:50:03;30.90;70.10
40077;DHT22;25777;47.824;18.982;2022-07-23T07:52:29;31.00;70.10
40077;DHT22;25777;47.824;18.982;2022-07-23T07:54:55;31.20;68.40
40077;DHT22;25777;47.824;18.982;2022-07-23T07:57:21;31.30;67.60
40077;DHT22;25777;47.824;18.982;2022-07-23T07:59:47;31.30;68.60
40077;DHT22;25777;47.824;18.982;2022-07-23T08:02:13;31.50;67.20
40077;DHT22;25777;47.824;18.982;2022-07-23T08:04:39;31.70;66.90
40077;DHT22;25777;47.824;18.982;2022-07-23T08:07:05;31.90;64.90
40077;DHT22;25777;47.824;18.982;2022-07-23T08:09:31;31.90;64.50
40077;DHT22;25777;47.824;18.982;2022-07-23T08:11:58;32.10;68.40
40077;DHT22;25777;47.824;18.982;2022-07-23T08:14:23;32.20;65.50
40077;DHT22;25777;47.824;18.982;2022-07-23T08:16:49;32.40;64.90
40077;DHT22;25777;47.824;18.982;2022-07-23T08:19:15;32.50;65.40
40077;DHT22;25777;47.824;18.982;2022-07-23T08:21:40;32.70;64.20
40077;DHT22;25777;47.824;18.982;2022-07-23T08:24:06;32.90;62.80
40077;DHT22;25777;47.824;18.982;2022-07-23T08:26:32;33.00;62.90
40077;DHT22;25777;47.824;18.982;2022-07-23T08:28:58;33.20;63.30
40077;DHT22;25777;47.824;18.982;2022-07-23T08:31:24;33.40;62.60
40077;DHT22;25777;47.824;18.982;2022-07-23T08:33:49;33.30;61.70
40077;DHT22;25777;47.824;18.982;2022-07-23T08:36:15;33.50;63.10
40077;DHT22;25777;47.824;18.982;2022-07-23T08:38:41;33.60;63.30
40077;DHT22;25777;47.824;18.982;2022-07-23T08:41:09;33.60;62.10
40077;DHT22;25777;47.824;18.982;2022-07-23T08:43:35;33.90;62.50
40077;DHT22;25777;47.824;18.982;2022-07-23T08:46:01;33.80;59.30
40077;DHT22;25777;47.824;18.982;2022-07-23T08:48:29;34.10;60.80
40077;DHT22;25777;47.824;18.982;2022-07-23T08:50:56;34.30;59.90
40077;DHT22;25777;47.824;18.982;2022-07-23T08:53:23;34.00;58.40
40077;DHT22;25777;47.824;18.982;2022-07-23T08:55:52;33.60;59.40
40077;DHT22;25777;47.824;18.982;2022-07-23T08:58:19;34.00;59.10
40077;DHT22;25777;47.824;18.982;2022-07-23T09:00:45;34.30;57.00
40077;DHT22;25777;47.824;18.982;2022-07-23T09:03:15;34.50;57.80
40077;DHT22;25777;47.824;18.982;2022-07-23T09:05:41;34.60;58.10
40077;DHT22;25777;47.824;18.982;2022-07-23T09:08:08;34.90;59.00
40077;DHT22;25777;47.824;18.982;2022-07-23T09:10:46;35.20;58.30
40077;DHT22;25777;47.824;18.982;2022-07-23T09:15:57;35.20;56.60
40077;DHT22;25777;47.824;18.982;2022-07-23T09:18:30;35.40;57.10
40077;DHT22;25777;47.824;18.982;2022-07-23T09:21:06;35.30;55.80
40077;DHT22;25777;47.824;18.982;2022-07-23T09:23:42;35.50;55.30
40077;DHT22;25777;47.824;18.982;2022-07-23T09:26:19;35.70;55.40
40077;DHT22;25777;47.824;18.982;2022-07-23T09:29:07;35.90;55.10
40077;DHT22;25777;47.824;18.982;2022-07-23T09:31:32;36.10;55.00
40077;DHT22;25777;47.824;18.982;2022-07-23T09:34:41;36.20;55.60
40077;DHT22;25777;47.824;18.982;2022-07-23T09:36:51;36.50;54.50
40077;DHT22;25777;47.824;18.982;2022-07-23T09:39:25;36.60;53.10
40077;DHT22;25777;47.824;18.982;2022-07-23T09:41:55;36.90;54.20
40077;DHT22;25777;47.824;18.982;2022-07-23T09:44:22;37.20;54.00
40077;DHT22;25777;47.824;18.982;2022-07-23T09:46:50;37.30;53.90
40077;DHT22;25777;47.824;18.982;2022-07-23T09:49:18;37.50;54.10
40077;DHT22;25777;47.824;18.982;2022-07-23T09:51:54;37.60;53.20
40077;DHT22;25777;47.824;18.982;2022-07-23T09:54:29;37.80;53.20
40077;DHT22;25777;47.824;18.982;2022-07-23T09:57:07;37.60;51.70
40077;DHT22;25777;47.824;18.982;2022-07-23T09:59:39;37.40;51.20
40077;DHT22;25777;47.824;18.982;2022-07-23T10:02:09;37.60;52.40
40077;DHT22;25777;47.824;18.982;2022-07-23T10:04:38;37.60;51.40
40077;DHT22;25777;47.824;18.982;2022-07-23T10:07:09;37.80;52.00
40077;DHT22;25777;47.824;18.982;2022-07-23T10:09:38;37.90;51.40
40077;DHT22;25777;47.824;18.982;2022-07-23T10:12:06;37.70;51.90
40077;DHT22;25777;47.824;18.982;2022-07-23T10:14:53;37.60;51.10
40077;DHT22;25777;47.824;18.982;2022-07-23T10:17:19;37.70;50.40
40077;DHT22;25777;47.824;18.982;2022-07-23T10:19:47;38.00;51.30
40077;DHT22;25777;47.824;18.982;2022-07-23T10:22:19;38.30;50.80
40077;DHT22;25777;47.824;18.982;2022-07-23T10:35:07;38.00;50.30
40077;DHT22;25777;47.824;18.982;2022-07-23T10:40:10;38.70;51.60
40077;DHT22;25777;47.824;18.982;2022-07-23T10:42:37;38.40;50.30
40077;DHT22;25777;47.824;18.982;2022-07-23T10:45:24;37.40;52.50
40077;DHT22;25777;47.824;18.982;2022-07-23T10:47:49;37.50;48.60
40077;DHT22;25777;47.824;18.982;2022-07-23T10:50:19;37.40;49.30
40077;DHT22;25777;47.824;18.982;2022-07-23T10:53:27;36.70;51.90
40077;DHT22;25777;47.824;18.982;2022-07-23T10:58:01;36.80;50.20
40077;DHT22;25777;47.824;18.982;2022-07-23T11:00:27;36.40;51.00
40077;DHT22;25777;47.824;18.982;2022-07-23T11:02:58;36.10;50.90
40077;DHT22;25777;47.824;18.982;2022-07-23T11:05:39;36.10;51.60
40077;DHT22;25777;47.824;18.982;2022-07-23T11:08:13;37.00;51.00
40077;DHT22;25777;47.824;18.982;2022-07-23T11:10:47;37.50;51.40
40077;DHT22;25777;47.824;18.982;2022-07-23T11:13:28;37.40;51.70
40077;DHT22;25777;47.824;18.982;2022-07-23T11:16:05;37.40;51.10
40077;DHT22;25777;47.824;18.982;2022-07-23T11:31:59;36.60;52.10
40077;DHT22;25777;47.824;18.982;2022-07-23T11:37:08;37.20;48.90
40077;DHT22;25777;47.824;18.982;2022-07-23T11:39:38;37.30;51.20
40077;DHT22;25777;47.824;18.982;2022-07-23T11:42:10;37.40;49.80
40077;DHT22;25777;47.824;18.982;2022-07-23T11:44:37;37.50;50.80
40077;DHT22;25777;47.824;18.982;2022-07-23T11:47:09;37.80;50.10
40077;DHT22;25777;47.824;18.982;2022-07-23T11:49:58;38.10;50.20
40077;DHT22;25777;47.824;18.982;2022-07-23T11:52:30;38.30;49.40
40077;DHT22;25777;47.824;18.982;2022-07-23T11:54:57;37.90;49.80
40077;DHT22;25777;47.824;18.982;2022-07-23T11:57:25;38.00;47.80
40077;DHT22;25777;47.824;18.982;2022-07-23T11:59:52;37.90;47.20
40077;DHT22;25777;47.824;18.982;2022-07-23T12:02:19;37.70;49.30
40077;DHT22;25777;47.824;18.982;2022-07-23T12:04:48;37.50;50.60
40077;DHT22;25777;47.824;18.982;2022-07-23T12:07:28;37.40;49.90
40077;DHT22;25777;47.824;18.982;2022-07-23T12:09:56;37.30;49.70
40077;DHT22;25777;47.824;18.982;2022-07-23T12:12:24;37.30;50.90
40077;DHT22;25777;47.824;18.982;2022-07-23T12:14:58;37.30;49.90
40077;DHT22;25777;47.824;18.982;2022-07-23T12:17:42;37.60;49.90
40077;DHT22;25777;47.824;18.982;2022-07-23T12:20:09;37.90;49.70
40077;DHT22;25777;47.824;18.982;2022-07-23T12:22:38;38.20;48.70
40077;DHT22;25777;47.824;18.982;2022-07-23T12:25:10;38.30;49.60
40077;DHT22;25777;47.824;18.982;2022-07-23T12:27:39;38.30;49.40
40077;DHT22;25777;47.824;18.982;2022-07-23T12:30:15;38.20;48.90
40077;DHT22;25777;47.824;18.982;2022-07-23T12:32:42;38.30;47.50
40077;DHT22;25777;47.824;18.982;2022-07-23T12:35:09;38.30;48.00
40077;DHT22;25777;47.824;18.982;2022-07-23T12:37:36;38.30;47.80
40077;DHT22;25777;47.824;18.982;2022-07-23T12:40:18;38.20;48.30
40077;DHT22;25777;47.824;18.982;2022-07-23T12:42:45;38.50;49.40
40077;DHT22;25777;47.824;18.982;2022-07-23T12:45:11;38.40;50.00
40077;DHT22;25777;47.824;18.982;2022-07-23T12:47:56;38.50;47.10
40077;DHT22;25777;47.824;18.982;2022-07-23T12:50:43;38.70;47.60
40077;DHT22;25777;47.824;18.982;2022-07-23T12:55:38;38.80;48.40
40077;DHT22;25777;47.824;18.982;2022-07-23T12:58:09;38.70;48.50
40077;DHT22;25777;47.824;18.982;2022-07-23T13:03:25;38.80;49.40
40077;DHT22;25777;47.824;18.982;2022-07-23T13:05:51;38.80;47.80
40077;DHT22;25777;47.824;18.982;2022-07-23T13:08:17;38.40;47.80
40077;DHT22;25777;47.824;18.982;2022-07-23T13:10:43;38.40;48.00
40077;DHT22;25777;47.824;18.982;2022-07-23T13:13:13;38.50;47.70
40077;DHT22;25777;47.824;18.982;2022-07-23T13:15:39;38.30;47.80
40077;DHT22;25777;47.824;18.982;2022-07-23T13:18:04;38.40;49.10
40077;DHT22;25777;47.824;18.982;2022-07-23T13:20:31;38.60;48.10
40077;DHT22;25777;47.824;18.982;2022-07-23T13:22:58;38.50;46.60
40077;DHT22;25777;47.824;18.982;2022-07-23T13:25:23;38.20;49.00
40077;DHT22;25777;47.824;18.982;2022-07-23T13:27:49;38.30;49.00
40077;DHT22;25777;47.824;18.982;2022-07-23T13:30:15;38.40;49.30
40077;DHT22;25777;47.824;18.982;2022-07-23T13:32:41;38.60;48.00
40077;DHT22;25777;47.824;18.982;2022-07-23T13:35:08;38.60;46.90
40077;DHT22;25777;47.824;18.982;2022-07-23T13:37:34;38.60;48.10
40077;DHT22;25777;47.824;18.982;2022-07-23T13:40:00;38.80;47.40
40077;DHT22;25777;47.824;18.982;2022-07-23T13:42:26;39.00;46.80
40077;DHT22;25777;47.824;18.982;2022-07-23T13:44:53;39.10;45.80
40077;DHT22;25777;47.824;18.982;2022-07-23T13:47:19;38.80;47.90
40077;DHT22;25777;47.824;18.982;2022-07-23T13:49:45;38.60;47.90
40077;DHT22;25777;47.824;18.982;2022-07-23T13:52:11;38.70;49.30
40077;DHT22;25777;47.824;18.982;2022-07-23T13:54:36;38.60;46.40
40077;DHT22;25777;47.824;18.982;2022-07-23T13:57:02;38.40;47.10
40077;DHT22;25777;47.824;18.982;2022-07-23T13:59:28;38.30;47.80
40077;DHT22;25777;47.824;18.982;2022-07-23T14:01:54;38.00;48.80
40077;DHT22;25777;47.824;18.982;2022-07-23T14:04:20;38.00;49.50
40077;DHT22;25777;47.824;18.982;2022-07-23T14:06:46;38.10;48.50
40077;DHT22;25777;47.824;18.982;2022-07-23T14:09:12;37.90;49.40
40077;DHT22;25777;47.824;18.982;2022-07-23T14:11:38;37.80;48.10
40077;DHT22;25777;47.824;18.982;2022-07-23T14:14:04;37.70;48.20
40077;DHT22;25777;47.824;18.982;2022-07-23T14:16:30;37.50;49.00
40077;DHT22;25777;47.824;18.982;2022-07-23T14:18:56;37.50;49.00
40077;DHT22;25777;47.824;18.982;2022-07-23T14:21:22;37.70;48.80
40077;DHT22;25777;47.824;18.982;2022-07-23T14:23:48;37.40;48.90
40077;DHT22;25777;47.824;18.982;2022-07-23T14:26:13;37.20;50.00
40077;DHT22;25777;47.824;18.982;2022-07-23T14:28:39;37.00;49.30
40077;DHT22;25777;47.824;18.982;2022-07-23T14:31:05;37.10;49.10
40077;DHT22;25777;47.824;18.982;2022-07-23T14:33:31;37.30;50.90
40077;DHT22;25777;47.824;18.982;2022-07-23T14:35:57;37.40;50.10
40077;DHT22;25777;47.824;18.982;2022-07-23T14:38:24;37.30;50.10
40077;DHT22;25777;47.824;18.982;2022-07-23T14:40:50;37.10;50.70
40077;DHT22;25777;47.824;18.982;2022-07-23T14:43:15;36.50;53.40
40077;DHT22;25777;47.824;18.982;2022-07-23T14:45:41;36.10;54.30
40077;DHT22;25777;47.824;18.982;2022-07-23T14:48:07;36.00;51.60
40077;DHT22;25777;47.824;18.982;2022-07-23T14:50:33;36.30;52.10
40077;DHT22;25777;47.824;18.982;2022-07-23T14:52:59;36.20;53.40
40077;DHT22;25777;47.824;18.982;2022-07-23T14:55:25;36.10;52.70
40077;DHT22;25777;47.824;18.982;2022-07-23T14:57:50;36.00;51.90
40077;DHT22;25777;47.824;18.982;2022-07-23T15:00:16;35.90;54.90
40077;DHT22;25777;47.824;18.982;2022-07-23T15:02:42;35.90;54.00
40077;DHT22;25777;47.824;18.982;2022-07-23T15:05:08;36.00;51.40
40077;DHT22;25777;47.824;18.982;2022-07-23T15:07:34;35.80;50.90
40077;DHT22;25777;47.824;18.982;2022-07-23T15:10:00;35.60;51.30
40077;DHT22;25777;47.824;18.982;2022-07-23T15:12:26;35.40;53.10
40077;DHT22;25777;47.824;18.982;2022-07-23T15:14:52;35.00;54.30
40077;DHT22;25777;47.824;18.982;2022-07-23T15:17:17;35.00;54.60
40077;DHT22;25777;47.824;18.982;2022-07-23T15:19:44;34.80;55.90
40077;DHT22;25777;47.824;18.982;2022-07-23T15:22:09;34.60;56.70
40077;DHT22;25777;47.824;18.982;2022-07-23T15:24:35;34.40;59.50
40077;DHT22;25777;47.824;18.982;2022-07-23T15:27:01;34.10;56.80
40077;DHT22;25777;47.824;18.982;2022-07-23T15:29:27;33.50;65.70
40077;DHT22;25777;47.824;18.982;2022-07-23T15:31:52;32.20;79.70
40077;DHT22;25777;47.824;18.982;2022-07-23T15:34:18;30.50;80.80
40077;DHT22;25777;47.824;18.982;2022-07-23T15:36:44;29.10;91.20
40077;DHT22;25777;47.824;18.982;2022-07-23T15:39:09;27.60;99.90
40077;DHT22;25777;47.824;18.982;2022-07-23T15:41:35;26.50;99.90
40077;DHT22;25777;47.824;18.982;2022-07-23T15:44:01;26.60;99.90
40077;DHT22;25777;47.824;18.982;2022-07-23T15:58:30;26.00;99.90
40077;DHT22;25777;47.824;18.982;2022-07-23T16:00:55;25.10;99.90
40077;DHT22;25777;47.824;18.982;2022-07-23T16:03:21;24.90;99.90
40077;DHT22;25777;47.824;18.982;2022-07-23T16:05:47;25.10;99.90